createdAt,value
2019-02-23T00:00:14.973Z,95103.97
2019-02-23T00:02:47.893Z,95101.41
2019-02-23T00:05:20.945Z,95116.21
2019-02-23T00:07:53.799Z,95102.20
2019-02-23T00:10:26.745Z,95108.06
2019-02-23T00:12:59.585Z,95114.76
2019-02-23T00:15:32.844Z,95119.27
2019-02-23T00:18:05.756Z,95121.16
2019-02-23T00:20:38.748Z,95117.69
2019-02-23T00:23:11.466Z,95122.96
2019-02-23T00:25:44.724Z,95122.97
2019-02-23T00:28:17.806Z,95129.09
2019-02-23T00:30:50.667Z,95140.56
2019-02-23T00:33:23.687Z,95152.02
2019-02-23T00:35:57.145Z,95136.58
2019-02-23T00:38:30.485Z,95141.33
2019-02-23T00:41:03.325Z,95151.70
2019-02-23T00:43:36.250Z,95154.52
2019-02-23T00:46:09.625Z,95159.41
2019-02-23T00:48:42.465Z,95167.70
2019-02-23T00:51:15.625Z,95171.45
2019-02-23T00:53:48.604Z,95174.23
2019-02-23T00:56:21.545Z,95172.13
2019-02-23T00:58:54.464Z,95171.13
2019-02-23T01:01:27.326Z,95164.95
2019-02-23T01:04:00.186Z,95162.36
2019-02-23T01:06:33.846Z,95162.66
2019-02-23T01:09:06.764Z,95163.81
2019-02-23T01:11:39.825Z,95165.78
2019-02-23T01:14:12.926Z,95173.91
2019-02-23T01:16:45.925Z,95175.55
2019-02-23T01:19:18.905Z,95175.83
2019-02-23T01:21:51.845Z,95174.85
2019-02-23T01:24:24.869Z,95178.41
2019-02-23T01:26:57.829Z,95178.80
2019-02-23T01:29:30.605Z,95184.33
2019-02-23T01:32:03.412Z,95196.73
2019-02-23T01:34:36.625Z,95199.82
2019-02-23T01:37:09.824Z,95196.53
2019-02-23T01:39:43.124Z,95199.97
2019-02-23T01:42:15.964Z,95201.83
2019-02-23T01:44:49.265Z,95205.48
2019-02-23T01:47:22.465Z,95215.55
2019-02-23T01:49:58.824Z,95222.79
2019-02-23T01:52:30.185Z,95223.53
2019-02-23T01:55:02.994Z,95220.95
2019-02-23T01:57:35.825Z,95228.20
2019-02-23T02:00:09.205Z,95222.39
2019-02-23T02:02:42.865Z,95228.80
2019-02-23T02:05:16.025Z,95233.25
2019-02-23T02:07:49.009Z,95238.13
2019-02-23T02:10:22.235Z,95231.23
2019-02-23T02:12:54.986Z,95237.69
2019-02-23T02:15:28.225Z,95241.70
2019-02-23T02:18:00.965Z,95242.41
2019-02-23T02:20:33.925Z,95252.55
2019-02-23T02:23:07.044Z,95261.02
2019-02-23T02:25:40.005Z,95267.59
2019-02-23T02:28:12.909Z,95267.27
2019-02-23T02:30:45.806Z,95262.84
2019-02-23T02:33:18.785Z,95270.95
2019-02-23T02:35:51.743Z,95265.82
2019-02-23T02:38:24.507Z,95271.92
2019-02-23T02:40:57.785Z,95275.59
2019-02-23T02:43:30.649Z,95276.98
2019-02-23T02:46:03.625Z,95285.44
2019-02-23T02:48:36.910Z,95290.16
2019-02-23T02:51:10.464Z,95288.94
2019-02-23T02:53:43.465Z,95289.02
2019-02-23T02:56:16.504Z,95292.33
2019-02-23T02:58:49.366Z,95290.37
2019-02-23T03:01:22.485Z,95293.16
2019-02-23T03:03:55.638Z,95288.98
2019-02-23T03:06:28.666Z,95294.38
2019-02-23T03:09:01.490Z,95297.88
2019-02-23T03:11:34.326Z,95303.59
2019-02-23T03:14:07.445Z,95310.23
2019-02-23T03:16:40.388Z,95315.02
2019-02-23T03:19:13.725Z,95312.83
2019-02-23T03:21:46.944Z,95314.75
2019-02-23T03:24:19.805Z,95311.70
2019-02-23T03:26:52.965Z,95314.52
2019-02-23T03:29:25.846Z,95317.67
2019-02-23T03:32:00.550Z,95326.47
2019-02-23T03:34:33.485Z,95327.58
2019-02-23T03:37:07.564Z,95340.48
2019-02-23T03:39:40.586Z,95332.12
2019-02-23T03:42:14.048Z,95334.95
2019-02-23T03:44:49.385Z,95340.02
2019-02-23T03:47:22.326Z,95338.21
2019-02-23T03:49:55.207Z,95343.70
2019-02-23T03:52:28.145Z,95349.03
2019-02-23T03:55:01.105Z,95347.38
2019-02-23T03:57:34.068Z,95343.60
2019-02-23T04:00:07.026Z,95347.04
2019-02-23T04:02:40.165Z,95350.48
2019-02-23T04:05:13.725Z,95353.42
2019-02-23T04:07:46.665Z,95354.73
2019-02-23T04:10:19.731Z,95360.08
2019-02-23T04:12:52.586Z,95361.11
2019-02-23T04:15:25.406Z,95358.63
2019-02-23T04:17:58.425Z,95361.70
2019-02-23T04:20:31.406Z,95370.17
2019-02-23T04:23:04.405Z,95367.70
2019-02-23T04:25:37.869Z,95371.25
2019-02-23T04:28:10.745Z,95364.04
2019-02-23T04:30:43.688Z,95358.63
2019-02-23T04:33:16.669Z,95370.00
2019-02-23T04:35:49.885Z,95367.20
2019-02-23T04:38:22.968Z,95366.48
2019-02-23T04:40:56.129Z,95367.83
2019-02-23T04:43:29.191Z,95366.94
2019-02-23T04:46:02.366Z,95364.94
2019-02-23T04:48:35.686Z,95363.42
2019-02-23T04:51:14.375Z,95355.59
2019-02-23T04:53:43.545Z,95357.64
2019-02-23T04:56:16.744Z,95359.66
2019-02-23T04:58:49.687Z,95364.95
2019-02-23T05:01:22.624Z,95368.11
2019-02-23T05:03:55.367Z,95365.44
2019-02-23T05:06:28.406Z,95360.07
2019-02-23T05:09:01.647Z,95369.20
2019-02-23T05:11:34.864Z,95366.36
2019-02-23T05:14:07.867Z,95370.88
2019-02-23T05:16:40.805Z,95375.19
2019-02-23T05:19:14.009Z,95379.19
2019-02-23T05:21:46.925Z,95378.42
2019-02-23T05:24:20.585Z,95377.75
2019-02-23T05:26:53.605Z,95373.55
2019-02-23T05:29:26.591Z,95369.58
2019-02-23T05:31:59.545Z,95375.16
2019-02-23T05:34:32.646Z,95376.17
2019-02-23T05:37:05.392Z,95382.53
2019-02-23T05:39:38.504Z,95382.34
2019-02-23T05:42:11.508Z,95388.13
2019-02-23T05:44:44.466Z,95394.86
2019-02-23T05:47:17.286Z,95393.11
2019-02-23T05:49:50.186Z,95137.45
2019-02-23T05:52:23.105Z,95399.48
2019-02-23T05:54:55.964Z,95391.88
2019-02-23T05:57:28.988Z,95398.70
2019-02-23T06:00:01.889Z,95398.15
2019-02-23T06:02:34.903Z,95405.23
2019-02-23T06:05:07.763Z,95409.52
2019-02-23T06:07:41.305Z,95407.77
2019-02-23T06:10:14.394Z,95406.18
2019-02-23T06:12:47.266Z,95409.11
2019-02-23T06:15:20.246Z,95410.68
2019-02-23T06:17:53.425Z,95410.39
2019-02-23T06:20:26.405Z,95418.12
2019-02-23T06:22:59.587Z,95425.88
2019-02-23T06:25:32.337Z,95421.49
2019-02-23T06:28:05.292Z,95422.45
2019-02-23T06:30:38.165Z,95422.64
2019-02-23T06:33:12.645Z,95427.37
2019-02-23T06:35:45.686Z,95430.63
2019-02-23T06:38:18.627Z,95441.02
2019-02-23T06:40:51.626Z,95435.45
2019-02-23T06:43:24.654Z,95432.85
2019-02-23T06:45:57.545Z,95436.41
2019-02-23T06:48:30.508Z,95428.84
2019-02-23T06:51:03.512Z,95431.62
2019-02-23T06:53:36.364Z,95427.91
2019-02-23T06:56:09.285Z,95432.18
2019-02-23T06:58:42.249Z,95434.79
2019-02-23T07:01:15.306Z,95425.37
2019-02-23T07:03:48.669Z,95421.67
2019-02-23T07:06:21.590Z,95418.45
2019-02-23T07:08:54.506Z,95414.91
2019-02-23T07:11:27.944Z,95412.03
2019-02-23T07:14:00.749Z,95420.89
2019-02-23T07:16:33.710Z,95410.83
2019-02-23T07:19:06.396Z,95419.19
2019-02-23T07:21:39.351Z,95416.16
2019-02-23T07:24:12.224Z,95425.19
2019-02-23T07:26:45.068Z,95431.59
2019-02-23T07:29:17.868Z,95436.45
2019-02-23T07:31:50.996Z,95435.95
2019-02-23T07:34:23.808Z,95434.92
2019-02-23T07:36:57.024Z,95436.84
2019-02-23T07:39:29.787Z,95434.16
2019-02-23T07:42:02.646Z,95426.61
2019-02-23T07:44:35.770Z,95427.13
2019-02-23T07:47:08.644Z,95426.55
2019-02-23T07:49:41.765Z,95431.69
2019-02-23T07:52:14.577Z,95424.49
2019-02-23T07:54:48.046Z,95423.20
2019-02-23T07:57:21.368Z,95432.39
2019-02-23T07:59:54.965Z,95428.86
2019-02-23T08:02:27.964Z,95424.94
2019-02-23T08:05:00.905Z,95422.34
2019-02-23T08:07:33.694Z,95421.75
2019-02-23T08:10:06.848Z,95420.37
2019-02-23T08:12:39.967Z,95424.05
2019-02-23T08:15:12.741Z,95422.81
2019-02-23T08:17:45.513Z,95433.28
2019-02-23T08:20:18.278Z,95427.87
2019-02-23T08:22:51.115Z,95420.37
2019-02-23T08:25:24.592Z,95416.33
2019-02-23T08:27:57.530Z,95420.06
2019-02-23T08:30:30.391Z,95421.79
2019-02-23T08:33:03.278Z,95424.30
2019-02-23T08:35:36.210Z,95417.47
2019-02-23T08:38:09.153Z,95422.67
2019-02-23T08:40:42.344Z,95423.53
2019-02-23T08:43:15.284Z,95424.36
2019-02-23T08:45:48.204Z,95421.05
2019-02-23T08:48:21.327Z,95420.50
2019-02-23T08:50:54.552Z,95432.91
2019-02-23T08:53:27.503Z,95438.31
2019-02-23T08:56:00.429Z,95434.86
2019-02-23T08:58:33.389Z,95436.69
2019-02-23T09:01:06.332Z,95428.30
2019-02-23T09:03:39.229Z,95429.58
2019-02-23T09:06:12.688Z,95434.42
2019-02-23T09:08:45.537Z,95437.73
2019-02-23T09:11:19.455Z,95445.23
2019-02-23T09:13:52.954Z,95443.83
2019-02-23T09:16:25.669Z,95445.83
2019-02-23T09:18:58.545Z,95446.16
2019-02-23T09:21:31.400Z,95442.39
2019-02-23T09:24:04.265Z,95444.84
2019-02-23T09:26:37.207Z,95442.92
2019-02-23T09:29:10.144Z,95439.53
2019-02-23T09:31:43.269Z,95437.27
2019-02-23T09:34:16.324Z,95433.47
2019-02-23T09:36:50.326Z,95443.41
2019-02-23T09:39:23.270Z,95433.97
2019-02-23T09:42:07.012Z,95440.59
2019-02-23T09:44:30.624Z,95448.56
2019-02-23T09:47:03.545Z,95445.52
2019-02-23T09:49:36.410Z,95442.36
2019-02-23T09:52:09.604Z,95451.34
2019-02-23T09:54:42.406Z,95442.49
2019-02-23T09:57:15.426Z,95447.32
2019-02-23T09:59:48.450Z,95450.11
2019-02-23T10:02:21.347Z,95455.32
2019-02-23T10:04:54.604Z,95448.91
2019-02-23T10:07:27.665Z,95448.73
2019-02-23T10:10:00.704Z,95444.55
2019-02-23T10:12:33.486Z,95438.85
2019-02-23T10:15:06.463Z,95440.19
2019-02-23T10:17:39.345Z,95437.39
2019-02-23T10:20:12.230Z,95434.87
2019-02-23T10:22:44.965Z,95423.05
2019-02-23T10:25:20.127Z,95430.97
2019-02-23T10:27:53.264Z,95421.48
2019-02-23T10:30:26.155Z,95418.48
2019-02-23T10:32:59.088Z,95417.11
2019-02-23T10:35:32.143Z,95413.98
2019-02-23T10:38:04.984Z,95411.41
2019-02-23T10:40:38.085Z,95401.88
2019-02-23T10:43:11.465Z,95404.52
2019-02-23T10:45:44.532Z,95410.50
2019-02-23T10:48:17.444Z,95408.05
2019-02-23T10:50:50.587Z,95409.83
2019-02-23T10:53:32.641Z,95406.75
2019-02-23T10:55:58.311Z,95403.09
2019-02-23T10:58:31.347Z,95405.65
2019-02-23T11:01:06.831Z,95400.39
2019-02-23T11:03:38.787Z,95409.19
2019-02-23T11:06:11.827Z,95400.25
2019-02-23T11:08:44.868Z,95397.85
2019-02-23T11:11:17.768Z,95389.08
2019-02-23T11:13:51.187Z,95373.30
2019-02-23T11:16:24.104Z,95369.83
2019-02-23T11:18:56.924Z,95352.13
2019-02-23T11:21:29.979Z,95362.28
2019-02-23T11:24:02.804Z,95351.89
2019-02-23T11:26:35.911Z,95352.17
2019-02-23T11:29:11.810Z,95359.12
2019-02-23T11:31:44.765Z,95357.81
2019-02-23T11:34:18.124Z,95366.05
2019-02-23T11:36:51.194Z,95364.45
2019-02-23T11:39:30.169Z,95358.05
2019-02-23T11:42:02.850Z,95366.16
2019-02-23T11:44:36.284Z,95363.86
2019-02-23T11:47:09.264Z,95353.39
2019-02-23T11:49:42.185Z,95354.48
2019-02-23T11:52:15.765Z,95347.55
2019-02-23T11:54:48.806Z,95343.50
2019-02-23T11:57:22.704Z,95341.69
2019-02-23T11:59:56.264Z,95337.77
2019-02-23T12:02:30.584Z,95341.39
2019-02-23T12:05:03.595Z,95339.08
2019-02-23T12:07:36.704Z,95327.64
2019-02-23T12:10:09.466Z,95313.45
2019-02-23T12:12:42.232Z,95310.28
2019-02-23T12:15:15.113Z,95313.47
2019-02-23T12:17:48.245Z,95316.86
2019-02-23T12:20:21.003Z,95310.24
2019-02-23T12:22:53.904Z,95311.94
2019-02-23T12:25:27.185Z,95309.30
2019-02-23T12:28:01.796Z,95323.05
2019-02-23T12:30:34.845Z,95316.70
2019-02-23T12:33:07.954Z,95323.95
2019-02-23T12:35:40.986Z,95319.55
2019-02-23T12:38:13.865Z,95326.13
2019-02-23T12:40:46.793Z,95313.93
2019-02-23T12:43:19.769Z,95323.72
2019-02-23T12:45:53.013Z,95334.80
2019-02-23T12:48:26.073Z,95333.53
2019-02-23T12:50:58.978Z,95337.69
2019-02-23T12:53:31.807Z,95333.84
2019-02-23T12:56:05.564Z,95323.91
2019-02-23T12:58:39.005Z,95322.52
2019-02-23T13:01:12.107Z,95313.64
2019-02-23T13:03:45.068Z,95308.69
2019-02-23T13:06:18.009Z,95299.06
2019-02-23T13:08:50.948Z,95302.31
2019-02-23T13:11:24.045Z,95292.72
2019-02-23T13:13:56.984Z,95292.54
2019-02-23T13:16:48.805Z,95274.74
2019-02-23T13:19:21.984Z,95279.59
2019-02-23T13:21:55.345Z,95271.28
2019-02-23T13:24:28.750Z,95256.95
2019-02-23T13:27:02.206Z,95257.67
2019-02-23T13:29:35.159Z,95259.84
2019-02-23T13:32:07.998Z,95264.92
2019-02-23T13:34:40.868Z,95265.47
2019-02-23T13:37:13.889Z,95257.69
2019-02-23T13:39:46.986Z,95267.08
2019-02-23T13:42:20.055Z,95266.72
2019-02-23T13:44:53.345Z,95262.59
2019-02-23T13:47:26.965Z,95266.33
2019-02-23T13:49:59.904Z,95261.42
2019-02-23T13:52:32.745Z,95261.11
2019-02-23T13:55:05.506Z,95262.28
2019-02-23T13:57:38.250Z,95262.59
2019-02-23T14:00:11.069Z,95264.11
2019-02-23T14:02:44.119Z,95281.22
2019-02-23T14:05:17.222Z,95279.17
2019-02-23T14:07:50.246Z,95282.69
2019-02-23T14:10:23.047Z,95284.41
2019-02-23T14:12:56.096Z,95272.50
2019-02-23T14:15:29.130Z,95269.61
2019-02-23T14:18:01.812Z,95266.48
2019-02-23T14:20:34.789Z,95269.59
2019-02-23T14:23:07.705Z,95264.61
2019-02-23T14:25:42.964Z,95266.05
2019-02-23T14:28:15.803Z,95270.37
2019-02-23T14:30:48.703Z,95269.59
2019-02-23T14:33:21.489Z,95271.27
2019-02-23T14:35:54.364Z,95275.52
2019-02-23T14:38:28.045Z,95268.70
2019-02-23T14:41:01.021Z,95274.16
2019-02-23T14:43:33.959Z,95279.47
2019-02-23T14:46:06.708Z,95271.30
2019-02-23T14:48:40.232Z,95272.59
2019-02-23T14:51:13.535Z,95274.78
2019-02-23T14:53:47.179Z,95275.13
2019-02-23T14:56:20.068Z,95267.67
2019-02-23T14:58:53.281Z,95271.34
2019-02-23T15:01:26.070Z,95273.06
2019-02-23T15:03:58.964Z,95274.80
2019-02-23T15:06:31.899Z,95273.35
2019-02-23T15:09:04.746Z,95269.16
2019-02-23T15:11:37.684Z,95262.58
2019-02-23T15:14:10.984Z,95266.35
2019-02-23T15:16:43.844Z,95270.03
2019-02-23T15:19:16.866Z,95271.65
2019-02-23T15:21:50.064Z,95268.14
2019-02-23T15:24:23.145Z,95258.85
2019-02-23T15:26:56.204Z,95256.33
2019-02-23T15:29:29.213Z,95262.39
2019-02-23T15:32:02.152Z,95260.63
2019-02-23T15:34:35.474Z,95255.16
2019-02-23T15:37:08.338Z,95266.77
2019-02-23T15:39:41.282Z,95279.27
2019-02-23T15:42:14.525Z,95273.08
2019-02-23T15:44:47.467Z,95274.27
2019-02-23T15:47:20.389Z,95279.67
2019-02-23T15:49:55.777Z,95272.81
2019-02-23T15:52:28.686Z,95251.77
2019-02-23T15:55:01.550Z,95254.67
2019-02-23T15:57:34.487Z,95257.77
2019-02-23T16:00:07.485Z,95266.30
2019-02-23T16:02:41.680Z,95282.16
2019-02-23T16:05:14.608Z,95279.37
2019-02-23T16:07:49.725Z,95287.05
2019-02-23T16:10:22.707Z,95287.61
2019-02-23T16:12:55.688Z,95281.93
2019-02-23T16:15:29.267Z,95288.41
2019-02-23T16:18:02.249Z,95292.16
2019-02-23T16:20:35.171Z,95300.84
2019-02-23T16:23:08.002Z,95307.04
2019-02-23T16:25:40.955Z,95286.30
2019-02-23T16:28:13.927Z,95303.17
2019-02-23T16:30:46.750Z,95306.25
2019-02-23T16:33:19.747Z,95312.28
2019-02-23T16:35:52.668Z,95324.69
2019-02-23T16:38:25.667Z,95310.33
2019-02-23T16:40:58.447Z,95313.11
2019-02-23T16:43:31.528Z,95338.79
2019-02-23T16:46:04.448Z,95315.66
2019-02-23T16:48:37.268Z,95319.14
2019-02-23T16:51:10.186Z,95323.27
2019-02-23T16:53:43.310Z,95341.63
2019-02-23T16:56:16.151Z,95349.98
2019-02-23T16:58:49.115Z,95351.33
2019-02-23T17:01:21.969Z,95343.95
2019-02-23T17:03:54.926Z,95347.48
2019-02-23T17:06:27.688Z,95362.05
2019-02-23T17:09:00.725Z,95363.82
2019-02-23T17:11:33.714Z,95371.97
2019-02-23T17:14:07.087Z,95382.13
2019-02-23T17:16:39.928Z,95378.83
2019-02-23T17:19:12.732Z,95388.19
2019-02-23T17:21:45.562Z,95381.94
2019-02-23T17:24:18.402Z,95388.76
2019-02-23T17:26:52.710Z,95387.55
2019-02-23T17:29:25.617Z,95394.05
2019-02-23T17:31:59.486Z,95400.11
2019-02-23T17:34:32.356Z,95403.09
2019-02-23T17:37:05.507Z,95405.70
2019-02-23T17:39:38.386Z,95415.55
2019-02-23T17:42:11.248Z,95425.06
2019-02-23T17:44:44.148Z,95415.05
2019-02-23T17:47:16.925Z,95422.30
2019-02-23T17:49:50.485Z,95414.09
2019-02-23T17:52:23.785Z,95422.94
2019-02-23T17:54:57.685Z,95418.54
2019-02-23T17:57:30.966Z,95425.21
2019-02-23T18:00:03.967Z,95428.31
2019-02-23T18:02:37.985Z,95440.48
2019-02-23T18:05:11.405Z,95435.80
2019-02-23T18:07:44.296Z,95447.34
2019-02-23T18:10:17.564Z,95443.30
2019-02-23T18:12:51.776Z,95440.83
2019-02-23T18:15:24.808Z,95439.06
2019-02-23T18:17:57.614Z,95432.62
2019-02-23T18:20:30.458Z,95437.23
2019-02-23T18:23:03.231Z,95434.87
2019-02-23T18:25:36.127Z,95431.66
2019-02-23T18:28:09.066Z,95424.84
2019-02-23T18:30:41.995Z,95422.30
2019-02-23T18:33:14.723Z,95423.38
2019-02-23T18:35:47.480Z,95425.18
2019-02-23T18:38:20.587Z,95427.14
2019-02-23T18:40:53.871Z,95433.79
2019-02-23T18:43:27.428Z,95431.22
2019-02-23T18:46:00.948Z,95433.48
2019-02-23T18:48:33.708Z,95433.99
2019-02-23T18:51:06.567Z,95435.59
2019-02-23T18:53:39.425Z,95435.12
2019-02-23T18:56:13.355Z,95435.19
2019-02-23T18:58:46.284Z,95434.82
2019-02-23T19:01:19.176Z,95442.09
2019-02-23T19:03:52.225Z,95441.69
2019-02-23T19:06:25.109Z,95441.69
2019-02-23T19:08:58.035Z,95437.94
2019-02-23T19:11:31.205Z,95439.80
2019-02-23T19:14:04.004Z,95441.71
2019-02-23T19:16:37.027Z,95450.59
2019-02-23T19:19:10.284Z,95456.13
2019-02-23T19:21:43.485Z,95458.36
2019-02-23T19:24:16.519Z,95454.92
2019-02-23T19:26:49.446Z,95454.19
2019-02-23T19:29:22.387Z,95463.66
2019-02-23T19:31:55.506Z,95472.94
2019-02-23T19:34:28.291Z,95473.44
2019-02-23T19:37:01.287Z,95472.48
2019-02-23T19:39:34.148Z,95472.94
2019-02-23T19:42:07.167Z,95473.77
2019-02-23T19:44:40.068Z,95469.40
2019-02-23T19:47:12.908Z,95466.45
2019-02-23T19:49:46.047Z,95469.72
2019-02-23T19:52:19.269Z,95474.37
2019-02-23T19:54:52.983Z,95472.03
2019-02-23T19:57:26.148Z,95475.73
2019-02-23T19:59:59.029Z,95465.29
2019-02-23T20:02:32.634Z,95462.90
2019-02-23T20:05:06.053Z,95452.41
2019-02-23T20:07:39.305Z,95447.51
2019-02-23T20:10:12.345Z,95446.94
2019-02-23T20:12:45.636Z,95446.02
2019-02-23T20:15:18.649Z,95449.91
2019-02-23T20:17:52.225Z,95447.54
2019-02-23T20:20:25.127Z,95445.48
2019-02-23T20:22:58.107Z,95446.55
2019-02-23T20:25:31.128Z,95445.96
2019-02-23T20:28:04.105Z,95440.97
2019-02-23T20:30:36.905Z,95445.56
2019-02-23T20:33:13.433Z,95449.03
2019-02-23T20:35:47.287Z,95440.77
2019-02-23T20:38:20.265Z,95436.91
2019-02-23T20:40:53.107Z,95444.97
2019-02-23T20:43:27.399Z,95440.59
2019-02-23T20:46:00.691Z,95458.56
2019-02-23T20:48:33.667Z,95457.27
2019-02-23T20:51:06.667Z,95457.84
2019-02-23T20:53:39.667Z,95461.45
2019-02-23T20:56:13.023Z,95455.94
2019-02-23T20:58:46.305Z,95461.58
2019-02-23T21:01:19.445Z,95470.53
2019-02-23T21:03:52.564Z,95460.98
2019-02-23T21:06:25.546Z,95464.33
2019-02-23T21:08:59.765Z,95466.77
2019-02-23T21:11:33.963Z,95463.22
2019-02-23T21:14:07.004Z,95468.34
2019-02-23T21:16:40.186Z,95466.03
2019-02-23T21:19:13.386Z,95459.27
2019-02-23T21:21:46.663Z,95465.19
2019-02-23T21:24:19.523Z,95466.83
2019-02-23T21:26:52.405Z,95463.02
2019-02-23T21:29:25.805Z,95463.25
2019-02-23T21:31:58.784Z,95475.16
2019-02-23T21:34:31.665Z,95474.55
2019-02-23T21:37:04.885Z,95466.31
2019-02-23T21:39:38.346Z,95460.14
2019-02-23T21:42:11.487Z,95453.20
2019-02-23T21:44:44.605Z,95452.47
2019-02-23T21:47:17.864Z,95447.12
2019-02-23T21:49:50.784Z,95445.84
2019-02-23T21:52:24.206Z,95453.47
2019-02-23T21:54:57.257Z,95446.43
2019-02-23T21:57:30.405Z,95446.30
2019-02-23T22:00:03.447Z,95451.48
2019-02-23T22:02:36.267Z,95448.30
2019-02-23T22:05:12.475Z,95436.44
2019-02-23T22:07:43.677Z,95440.16
2019-02-23T22:10:16.746Z,95439.36
2019-02-23T22:12:49.724Z,95436.77
2019-02-23T22:15:22.969Z,95438.67
2019-02-23T22:17:55.768Z,95426.52
2019-02-23T22:20:28.906Z,95425.66
2019-02-23T22:23:02.231Z,95433.91
2019-02-23T22:25:37.166Z,95427.44
2019-02-23T22:28:09.806Z,95424.72
2019-02-23T22:30:42.894Z,95424.14
2019-02-23T22:33:16.022Z,95420.14
2019-02-23T22:35:48.786Z,95425.28
2019-02-23T22:38:21.823Z,95418.44
2019-02-23T22:40:54.804Z,95420.45
2019-02-23T22:43:28.304Z,95428.96
2019-02-23T22:46:01.386Z,95423.51
2019-02-23T22:48:34.885Z,95417.52
2019-02-23T22:51:07.805Z,95405.92
2019-02-23T22:53:40.965Z,95410.97
2019-02-23T22:56:14.144Z,95411.73
2019-02-23T22:58:47.145Z,95413.67
2019-02-23T23:01:20.104Z,95417.16
2019-02-23T23:03:53.069Z,95409.92
2019-02-23T23:06:26.027Z,95413.06
2019-02-23T23:08:59.364Z,95403.55
2019-02-23T23:11:32.805Z,95411.59
2019-02-23T23:14:06.124Z,95414.53
2019-02-23T23:16:39.205Z,95411.02
2019-02-23T23:19:12.423Z,95408.02
2019-02-23T23:21:45.664Z,95408.49
2019-02-23T23:24:18.625Z,95404.30
2019-02-23T23:26:53.183Z,95394.08
2019-02-23T23:29:25.945Z,95397.32
2019-02-23T23:31:59.466Z,95397.66
2019-02-23T23:34:32.485Z,95390.37
2019-02-23T23:37:05.464Z,95400.86
2019-02-23T23:39:38.425Z,95398.48
2019-02-23T23:42:11.665Z,95412.12
2019-02-23T23:44:44.546Z,95407.08
2019-02-23T23:47:17.465Z,95401.81
2019-02-23T23:49:50.605Z,95394.59
2019-02-23T23:52:23.525Z,95391.52
2019-02-23T23:54:56.726Z,95388.36
2019-02-23T23:57:29.984Z,95385.29
